createdAt,value
2022-11-12T00:00:20.685Z,6.28
2022-11-12T00:03:06.252Z,6.39
2022-11-12T00:05:51.477Z,6.35
2022-11-12T00:08:37.153Z,5.90
2022-11-12T00:11:22.380Z,6.01
2022-11-12T00:14:07.971Z,6.03
2022-11-12T00:16:53.678Z,5.91
2022-11-12T00:19:39.223Z,5.92
2022-11-12T00:22:24.513Z,5.93
2022-11-12T00:25:10.583Z,6.02
2022-11-12T00:28:05.461Z,6.08
2022-11-12T00:30:50.687Z,6.02
2022-11-12T00:33:40.575Z,5.17
2022-11-12T00:36:26.318Z,5.75
2022-11-12T00:39:11.842Z,5.71
2022-11-12T00:41:57.215Z,5.71
2022-11-12T00:44:42.312Z,5.28
2022-11-12T00:47:27.881Z,5.86
2022-11-12T00:50:13.324Z,5.53
2022-11-12T00:52:58.738Z,5.95
2022-11-12T00:55:43.943Z,6.17
2022-11-12T00:58:34.915Z,6.10
2022-11-12T01:01:21.007Z,5.98
2022-11-12T01:04:06.876Z,5.88
2022-11-12T01:06:51.970Z,5.69
2022-11-12T01:09:37.201Z,5.71
2022-11-12T01:12:22.526Z,5.70
2022-11-12T01:15:08.717Z,5.81
2022-11-12T01:17:53.809Z,5.86
2022-11-12T01:20:39.398Z,5.81
2022-11-12T01:23:24.579Z,6.05
2022-11-12T01:26:12.862Z,6.19
2022-11-12T01:28:58.149Z,6.00
2022-11-12T01:31:43.435Z,5.57
2022-11-12T01:34:28.785Z,5.67
2022-11-12T01:37:13.903Z,5.66
2022-11-12T01:39:58.975Z,5.52
2022-11-12T01:42:51.584Z,5.46
2022-11-12T01:45:40.159Z,5.32
2022-11-12T01:48:27.957Z,5.37
2022-11-12T01:51:15.133Z,5.39
2022-11-12T01:54:06.995Z,5.39
2022-11-12T01:56:52.680Z,5.19
2022-11-12T01:59:43.808Z,5.12
2022-11-12T02:02:31.051Z,5.16
2022-11-12T02:05:18.218Z,5.11
2022-11-12T02:08:05.651Z,5.10
2022-11-12T02:10:51.151Z,4.96
2022-11-12T02:13:55.216Z,4.92
2022-11-12T02:16:43.007Z,4.82
2022-11-12T02:19:28.217Z,4.76
2022-11-12T02:22:13.712Z,4.66
2022-11-12T02:24:59.005Z,4.52
2022-11-12T02:27:45.056Z,4.50
2022-11-12T02:30:46.300Z,4.28
2022-11-12T02:33:31.589Z,4.47
2022-11-12T02:36:16.856Z,4.32
2022-11-12T02:39:02.186Z,4.84
2022-11-12T02:41:47.430Z,4.36
2022-11-12T02:44:33.027Z,4.79
2022-11-12T02:47:18.182Z,4.63
2022-11-12T02:50:04.933Z,4.48
2022-11-12T02:52:50.406Z,4.41
2022-11-12T02:55:35.879Z,4.39
2022-11-12T02:58:22.578Z,4.54
2022-11-12T03:01:07.705Z,4.54
2022-11-12T03:03:52.999Z,4.57
2022-11-12T03:06:39.535Z,4.56
2022-11-12T03:09:24.701Z,4.73
2022-11-12T03:12:10.046Z,4.83
2022-11-12T03:14:55.198Z,4.78
2022-11-12T03:17:40.602Z,4.34
2022-11-12T03:20:26.831Z,4.72
2022-11-12T03:23:12.095Z,4.86
2022-11-12T03:25:57.386Z,4.76
2022-11-12T03:28:42.818Z,4.64
2022-11-12T03:31:28.247Z,4.81
2022-11-12T03:34:13.690Z,4.61
2022-11-12T03:36:58.796Z,4.51
2022-11-12T03:39:43.879Z,4.58
2022-11-12T03:42:28.984Z,4.84
2022-11-12T03:45:15.026Z,4.68
2022-11-12T03:48:00.504Z,4.62
2022-11-12T03:50:45.921Z,4.61
2022-11-12T03:53:31.179Z,4.50
2022-11-12T03:56:16.651Z,4.35
2022-11-12T03:59:01.959Z,4.33
2022-11-12T04:01:47.352Z,4.28
2022-11-12T04:04:51.139Z,4.44
2022-11-12T04:07:55.355Z,4.66
2022-11-12T04:10:40.692Z,4.88
2022-11-12T04:13:28.718Z,4.98
2022-11-12T04:16:34.971Z,4.91
2022-11-12T04:19:38.947Z,4.72
2022-11-12T04:22:24.214Z,4.63
2022-11-12T04:25:27.860Z,4.41
2022-11-12T04:28:13.140Z,4.53
2022-11-12T04:30:58.294Z,4.46
2022-11-12T04:33:43.568Z,4.46
2022-11-12T04:36:28.657Z,4.46
2022-11-12T04:39:13.928Z,4.48
2022-11-12T04:42:17.696Z,4.62
2022-11-12T04:45:06.950Z,4.75
2022-11-12T04:47:52.062Z,4.68
2022-11-12T04:50:37.564Z,4.78
2022-11-12T04:53:23.809Z,4.79
2022-11-12T04:56:09.067Z,4.74
2022-11-12T04:58:54.255Z,4.79
2022-11-12T05:01:39.645Z,4.69
2022-11-12T05:04:27.640Z,4.73
2022-11-12T05:07:13.986Z,4.93
2022-11-12T05:09:59.310Z,4.91
2022-11-12T05:12:44.682Z,4.95
2022-11-12T05:15:30.027Z,5.02
2022-11-12T05:18:15.333Z,4.93
2022-11-12T05:21:20.324Z,4.85
2022-11-12T05:24:06.251Z,4.73
2022-11-12T05:26:51.731Z,4.78
2022-11-12T05:29:37.020Z,5.01
2022-11-12T05:32:22.252Z,5.11
2022-11-12T05:35:07.820Z,5.35
2022-11-12T05:37:53.157Z,5.37
2022-11-12T05:40:38.273Z,5.34
2022-11-12T05:43:23.673Z,5.37
2022-11-12T05:46:09.870Z,5.28
2022-11-12T05:48:55.244Z,5.31
2022-11-12T05:51:40.265Z,4.89
2022-11-12T05:54:25.418Z,4.89
2022-11-12T05:57:10.808Z,4.89
2022-11-12T05:59:56.320Z,4.92
2022-11-12T06:02:43.024Z,4.89
2022-11-12T06:05:28.268Z,4.74
2022-11-12T06:08:13.330Z,4.51
2022-11-12T06:10:58.359Z,4.54
2022-11-12T06:13:43.927Z,4.37
2022-11-12T06:16:29.744Z,4.52
2022-11-12T06:19:14.878Z,4.47
2022-11-12T06:22:00.395Z,4.45
2022-11-12T06:24:46.131Z,4.26
2022-11-12T06:27:32.215Z,4.20
2022-11-12T06:30:17.534Z,4.24
2022-11-12T06:33:03.766Z,4.11
2022-11-12T06:35:56.992Z,4.39
2022-11-12T06:38:42.936Z,4.41
2022-11-12T06:41:28.123Z,4.43
2022-11-12T06:44:14.682Z,4.43
2022-11-12T06:47:03.278Z,4.49
2022-11-12T06:49:48.481Z,4.53
2022-11-12T06:52:33.939Z,3.75
2022-11-12T06:55:19.423Z,4.45
2022-11-12T06:58:04.666Z,4.31
2022-11-12T07:00:50.029Z,4.16
2022-11-12T07:03:35.627Z,4.18
2022-11-12T07:06:21.071Z,4.06
2022-11-12T07:09:07.222Z,4.28
2022-11-12T07:11:52.421Z,4.00
2022-11-12T07:14:37.598Z,4.37
2022-11-12T07:17:22.897Z,3.97
2022-11-12T07:20:08.961Z,4.24
2022-11-12T07:22:54.034Z,4.61
2022-11-12T07:25:39.251Z,4.50
2022-11-12T07:28:25.511Z,4.91
2022-11-12T07:31:13.160Z,5.14
2022-11-12T07:33:58.691Z,4.87
2022-11-12T07:36:44.057Z,5.13
2022-11-12T07:39:29.535Z,5.58
2022-11-12T07:42:14.991Z,6.29
2022-11-12T07:45:00.141Z,6.45
2022-11-12T07:47:45.630Z,6.99
2022-11-12T07:50:31.105Z,6.87
2022-11-12T07:53:16.258Z,6.91
2022-11-12T07:56:04.432Z,6.93
2022-11-12T07:58:50.467Z,6.95
2022-11-12T08:01:40.911Z,6.95
2022-11-12T08:04:26.273Z,7.11
2022-11-12T08:07:11.728Z,7.46
2022-11-12T08:09:56.959Z,7.42
2022-11-12T08:12:42.296Z,7.74
2022-11-12T08:15:27.376Z,7.93
2022-11-12T08:18:13.066Z,8.08
2022-11-12T08:21:02.895Z,8.16
2022-11-12T08:23:48.489Z,8.14
2022-11-12T08:26:33.892Z,8.02
2022-11-12T08:29:18.902Z,8.08
2022-11-12T08:32:04.152Z,8.24
2022-11-12T08:34:49.284Z,8.41
2022-11-12T08:37:34.311Z,8.66
2022-11-12T08:40:19.697Z,8.84
2022-11-12T08:43:07.300Z,8.50
2022-11-12T08:45:52.645Z,8.30
2022-11-12T08:48:39.980Z,7.89
2022-11-12T08:51:25.672Z,8.44
2022-11-12T08:54:11.146Z,8.95
2022-11-12T08:56:56.268Z,9.01
2022-11-12T08:59:42.139Z,9.23
2022-11-12T09:02:27.891Z,9.09
2022-11-12T09:05:13.544Z,8.72
2022-11-12T09:08:01.229Z,8.97
2022-11-12T09:10:47.659Z,9.46
2022-11-12T09:13:34.126Z,9.65
2022-11-12T09:16:21.321Z,9.67
2022-11-12T09:19:07.200Z,9.76
2022-11-12T09:21:53.039Z,9.53
2022-11-12T09:24:39.003Z,9.13
2022-11-12T09:27:27.537Z,8.96
2022-11-12T09:30:14.460Z,9.30
2022-11-12T09:33:00.240Z,9.66
2022-11-12T09:35:46.846Z,9.72
2022-11-12T09:38:33.441Z,9.64
2022-11-12T09:41:33.876Z,9.54
2022-11-12T09:44:22.115Z,9.33
2022-11-12T09:47:25.023Z,9.69
2022-11-12T09:50:31.944Z,9.82
2022-11-12T09:53:33.210Z,9.65
2022-11-12T09:56:21.753Z,9.92
2022-11-12T09:59:13.687Z,10.11
2022-11-12T10:02:37.528Z,10.42
2022-11-12T10:05:36.608Z,10.31
2022-11-12T10:08:46.910Z,10.51
2022-11-12T10:12:10.799Z,10.80
2022-11-12T10:15:49.969Z,11.06
2022-11-12T10:19:16.801Z,11.10
2022-11-12T10:22:20.598Z,11.08
2022-11-12T10:25:32.812Z,11.48
2022-11-12T10:28:26.951Z,11.56
2022-11-12T10:31:16.465Z,11.79
2022-11-12T10:34:29.289Z,12.09
2022-11-12T10:37:24.640Z,12.21
2022-11-12T10:40:24.919Z,12.37
2022-11-12T10:43:15.854Z,12.38
2022-11-12T10:46:24.583Z,12.45
2022-11-12T10:49:16.308Z,12.70
2022-11-12T10:52:01.292Z,12.74
2022-11-12T10:54:50.924Z,12.53
2022-11-12T10:57:39.470Z,13.03
2022-11-12T11:00:25.363Z,13.02
2022-11-12T11:03:22.356Z,12.54
2022-11-12T11:06:25.930Z,12.72
2022-11-12T11:09:18.017Z,13.03
2022-11-12T11:12:03.609Z,13.18
2022-11-12T11:15:07.423Z,13.11
2022-11-12T11:17:52.753Z,12.92
2022-11-12T11:20:47.468Z,12.86
2022-11-12T11:23:40.417Z,13.13
2022-11-12T11:26:47.208Z,13.32
2022-11-12T11:29:48.741Z,13.43
2022-11-12T11:33:00.818Z,13.60
2022-11-12T11:36:10.309Z,13.65
2022-11-12T11:39:15.333Z,13.82
2022-11-12T11:42:38.037Z,14.08
2022-11-12T11:45:31.661Z,14.34
2022-11-12T11:48:29.081Z,14.62
2022-11-12T11:51:26.543Z,14.52
2022-11-12T11:54:17.474Z,13.96
2022-11-12T11:57:12.511Z,13.47
2022-11-12T12:00:29.305Z,13.40
2022-11-12T12:03:19.864Z,13.58
2022-11-12T12:06:12.311Z,13.76
2022-11-12T12:09:10.534Z,13.79
2022-11-12T12:12:15.198Z,13.74
2022-11-12T12:15:15.875Z,13.85
2022-11-12T12:18:04.048Z,13.96
2022-11-12T12:21:23.206Z,13.87
2022-11-12T12:24:36.082Z,14.08
2022-11-12T12:27:26.049Z,14.13
2022-11-12T12:30:22.557Z,14.09
2022-11-12T12:33:22.979Z,13.80
2022-11-12T12:36:19.368Z,13.24
2022-11-12T12:39:25.061Z,13.66
2022-11-12T12:42:18.561Z,13.92
2022-11-12T12:45:24.871Z,14.07
2022-11-12T12:48:24.544Z,14.04
2022-11-12T12:51:10.141Z,14.26
2022-11-12T12:53:55.432Z,14.13
2022-11-12T12:56:47.194Z,13.86
2022-11-12T12:59:32.641Z,13.71
2022-11-12T13:02:24.422Z,13.89
2022-11-12T13:05:32.943Z,13.95
2022-11-12T13:08:26.276Z,14.07
2022-11-12T13:11:57.882Z,13.92
2022-11-12T13:14:43.146Z,13.94
2022-11-12T13:17:47.292Z,13.84
2022-11-12T13:20:36.110Z,13.76
2022-11-12T13:24:07.420Z,13.46
2022-11-12T13:26:58.220Z,13.81
2022-11-12T13:29:44.560Z,13.78
2022-11-12T13:32:34.009Z,13.58
2022-11-12T13:35:22.068Z,13.54
2022-11-12T13:38:13.106Z,13.42
2022-11-12T13:41:43.067Z,13.28
2022-11-12T13:44:29.337Z,13.38
2022-11-12T13:47:18.576Z,13.32
2022-11-12T13:50:08.506Z,13.27
2022-11-12T13:52:54.145Z,13.23
2022-11-12T13:55:49.224Z,13.02
2022-11-12T13:58:36.625Z,13.00
2022-11-12T14:01:24.096Z,12.82
2022-11-12T14:04:18.817Z,12.60
2022-11-12T14:07:23.677Z,12.75
2022-11-12T14:10:35.745Z,11.99
2022-11-12T14:13:37.760Z,12.66
2022-11-12T14:16:34.986Z,12.63
2022-11-12T14:19:25.963Z,12.48
2022-11-12T14:22:13.829Z,12.58
2022-11-12T14:25:01.262Z,12.54
2022-11-12T14:27:48.095Z,12.34
2022-11-12T14:30:33.240Z,12.37
2022-11-12T14:33:21.223Z,12.15
2022-11-12T14:36:10.250Z,12.19
2022-11-12T14:38:57.546Z,11.69
2022-11-12T14:41:43.102Z,11.78
2022-11-12T14:44:37.718Z,11.13
2022-11-12T14:47:24.126Z,10.84
2022-11-12T14:50:26.443Z,10.71
2022-11-12T14:53:24.518Z,10.63
2022-11-12T14:56:35.392Z,10.56
2022-11-12T14:59:21.230Z,10.49
2022-11-12T15:02:42.627Z,10.47
2022-11-12T15:05:23.421Z,10.50
2022-11-12T15:08:12.208Z,10.54
2022-11-12T15:11:20.303Z,10.40
2022-11-12T15:14:13.656Z,10.27
2022-11-12T15:17:00.565Z,10.28
2022-11-12T15:19:45.713Z,10.24
2022-11-12T15:22:31.724Z,9.79
2022-11-12T15:25:17.473Z,9.61
2022-11-12T15:28:22.844Z,9.36
2022-11-12T15:31:21.017Z,9.22
2022-11-12T15:34:25.245Z,8.66
2022-11-12T15:37:20.510Z,8.84
2022-11-12T15:40:12.422Z,8.63
2022-11-12T15:42:58.342Z,8.48
2022-11-12T15:45:43.837Z,8.37
2022-11-12T15:48:29.264Z,7.94
2022-11-12T15:51:16.151Z,8.19
2022-11-12T15:54:01.525Z,8.08
2022-11-12T15:56:47.715Z,8.15
2022-11-12T15:59:33.119Z,8.09
2022-11-12T16:02:18.396Z,8.11
2022-11-12T16:05:03.486Z,8.08
2022-11-12T16:07:48.709Z,8.42
2022-11-12T16:10:34.398Z,8.40
2022-11-12T16:13:32.040Z,8.46
2022-11-12T16:16:17.516Z,8.28
2022-11-12T16:19:03.012Z,8.29
2022-11-12T16:21:48.353Z,8.54
2022-11-12T16:24:33.523Z,8.90
2022-11-12T16:27:20.446Z,8.91
2022-11-12T16:30:27.562Z,8.81
2022-11-12T16:33:14.231Z,8.62
2022-11-12T16:35:59.381Z,8.40
2022-11-12T16:38:46.066Z,8.34
2022-11-12T16:41:31.580Z,8.72
2022-11-12T16:44:17.030Z,8.61
2022-11-12T16:47:03.878Z,8.53
2022-11-12T16:49:49.136Z,8.47
2022-11-12T16:52:34.793Z,8.24
2022-11-12T16:55:21.381Z,8.21
2022-11-12T16:58:06.596Z,8.05
2022-11-12T17:00:52.017Z,8.14
2022-11-12T17:03:37.045Z,8.15
2022-11-12T17:06:24.162Z,8.18
2022-11-12T17:09:11.734Z,8.15
2022-11-12T17:11:56.883Z,7.93
2022-11-12T17:14:42.400Z,7.99
2022-11-12T17:17:27.716Z,7.90
2022-11-12T17:20:12.922Z,7.92
2022-11-12T17:22:58.338Z,7.63
2022-11-12T17:25:43.984Z,7.75
2022-11-12T17:28:30.503Z,7.79
2022-11-12T17:31:21.599Z,7.57
2022-11-12T17:34:07.181Z,7.65
2022-11-12T17:36:52.598Z,7.70
2022-11-12T17:39:38.116Z,7.84
2022-11-12T17:42:23.376Z,7.74
2022-11-12T17:45:09.461Z,7.85
2022-11-12T17:47:54.810Z,7.95
2022-11-12T17:50:40.386Z,7.71
2022-11-12T17:53:26.098Z,7.89
2022-11-12T17:56:14.824Z,7.58
2022-11-12T17:59:01.432Z,7.38
2022-11-12T18:01:46.477Z,7.40
2022-11-12T18:04:32.722Z,7.29
2022-11-12T18:07:18.710Z,7.38
2022-11-12T18:10:04.964Z,7.31
2022-11-12T18:12:52.173Z,7.51
2022-11-12T18:15:37.612Z,7.42
2022-11-12T18:18:23.394Z,7.08
2022-11-12T18:21:08.569Z,6.85
2022-11-12T18:23:54.163Z,6.80
2022-11-12T18:26:39.375Z,6.99
2022-11-12T18:29:24.605Z,6.94
2022-11-12T18:32:09.999Z,7.28
2022-11-12T18:34:55.514Z,7.05
2022-11-12T18:37:41.181Z,7.36
2022-11-12T18:40:27.064Z,7.33
2022-11-12T18:43:12.450Z,7.25
2022-11-12T18:46:00.968Z,7.31
2022-11-12T18:48:47.350Z,7.17
2022-11-12T18:51:32.902Z,7.18
2022-11-12T18:54:18.269Z,7.17
2022-11-12T18:57:03.772Z,7.22
2022-11-12T18:59:49.483Z,7.20
2022-11-12T19:02:34.999Z,6.93
2022-11-12T19:05:22.009Z,6.84
2022-11-12T19:08:07.456Z,6.89
2022-11-12T19:11:00.248Z,6.88
2022-11-12T19:13:45.777Z,7.01
2022-11-12T19:16:31.301Z,7.10
2022-11-12T19:19:16.646Z,7.00
2022-11-12T19:22:01.839Z,6.74
2022-11-12T19:24:47.239Z,6.64
2022-11-12T19:27:32.374Z,7.00
2022-11-12T19:30:17.839Z,7.08
2022-11-12T19:33:03.094Z,6.72
2022-11-12T19:35:48.696Z,6.88
2022-11-12T19:38:33.952Z,7.00
2022-11-12T19:41:20.195Z,6.95
2022-11-12T19:44:05.750Z,6.91
2022-11-12T19:46:51.148Z,6.77
2022-11-12T19:49:36.669Z,6.64
2022-11-12T19:52:22.460Z,6.58
2022-11-12T19:55:07.959Z,6.70
2022-11-12T19:57:53.521Z,6.76
2022-11-12T20:00:38.765Z,6.87
2022-11-12T20:03:26.159Z,7.08
2022-11-12T20:06:13.733Z,7.13
2022-11-12T20:09:03.851Z,7.14
2022-11-12T20:11:50.742Z,7.29
2022-11-12T20:14:35.969Z,7.21
2022-11-12T20:17:21.474Z,7.14
2022-11-12T20:20:09.380Z,6.98
2022-11-12T20:22:54.651Z,6.95
2022-11-12T20:25:40.054Z,6.56
2022-11-12T20:28:25.301Z,6.90
2022-11-12T20:31:16.979Z,6.73
2022-11-12T20:34:02.111Z,6.80
2022-11-12T20:36:47.395Z,6.97
2022-11-12T20:39:32.770Z,6.95
2022-11-12T20:42:18.158Z,6.84
2022-11-12T20:45:03.380Z,6.97
2022-11-12T20:47:48.622Z,6.91
2022-11-12T20:50:34.148Z,6.91
2022-11-12T20:53:19.588Z,7.01
2022-11-12T20:56:06.897Z,6.75
2022-11-12T20:58:52.975Z,6.39
2022-11-12T21:01:38.780Z,5.56
2022-11-12T21:04:24.830Z,5.92
2022-11-12T21:07:10.456Z,5.64
2022-11-12T21:09:55.955Z,5.70
2022-11-12T21:12:41.574Z,5.47
2022-11-12T21:15:27.088Z,5.86
2022-11-12T21:18:12.671Z,5.78
2022-11-12T21:21:11.959Z,5.88
2022-11-12T21:24:00.612Z,5.76
2022-11-12T21:26:49.732Z,5.71
2022-11-12T21:29:34.982Z,5.58
2022-11-12T21:32:20.004Z,5.42
2022-11-12T21:35:05.816Z,5.24
2022-11-12T21:37:50.869Z,5.38
2022-11-12T21:40:36.256Z,5.75
2022-11-12T21:43:21.510Z,5.89
2022-11-12T21:46:08.364Z,5.81
2022-11-12T21:48:55.519Z,5.87
2022-11-12T21:51:41.196Z,5.26
2022-11-12T21:54:26.713Z,4.89
2022-11-12T21:57:17.613Z,4.98
2022-11-12T22:00:34.484Z,5.13
2022-11-12T22:03:10.333Z,5.31
2022-11-12T22:05:55.682Z,5.17
2022-11-12T22:08:41.769Z,5.26
2022-11-12T22:11:27.590Z,5.29
2022-11-12T22:14:12.692Z,5.25
2022-11-12T22:16:58.156Z,5.30
2022-11-12T22:19:43.222Z,5.28
2022-11-12T22:22:28.656Z,5.38
2022-11-12T22:25:14.117Z,5.19
2022-11-12T22:27:59.660Z,5.19
2022-11-12T22:30:45.271Z,5.25
2022-11-12T22:33:30.686Z,4.86
2022-11-12T22:36:17.989Z,4.81
2022-11-12T22:39:04.810Z,4.60
2022-11-12T22:41:50.056Z,4.18
2022-11-12T22:44:35.259Z,4.48
2022-11-12T22:47:20.716Z,4.31
2022-11-12T22:50:06.824Z,4.32
2022-11-12T22:52:52.377Z,4.27
2022-11-12T22:55:37.529Z,3.90
2022-11-12T22:58:23.001Z,4.53
2022-11-12T23:01:16.605Z,4.44
2022-11-12T23:04:04.544Z,4.53
2022-11-12T23:06:49.886Z,4.44
2022-11-12T23:09:35.038Z,4.33
2022-11-12T23:12:20.489Z,4.29
2022-11-12T23:15:06.586Z,4.31
2022-11-12T23:17:51.851Z,4.17
2022-11-12T23:20:37.120Z,4.00
2022-11-12T23:23:22.651Z,4.03
2022-11-12T23:26:09.459Z,4.18
2022-11-12T23:28:54.799Z,4.31
2022-11-12T23:31:40.397Z,4.41
2022-11-12T23:34:25.769Z,4.27
2022-11-12T23:37:10.892Z,4.27
2022-11-12T23:39:55.968Z,4.16
2022-11-12T23:42:41.112Z,4.21
2022-11-12T23:45:26.289Z,4.10
2022-11-12T23:48:11.439Z,3.80
2022-11-12T23:51:05.730Z,3.98
2022-11-12T23:53:51.210Z,4.10
2022-11-12T23:56:36.729Z,4.07
2022-11-12T23:59:22.156Z,3.88
